This is the latest recevied weather packets stored in our database for station/object KI4LFI. If no packets are shown the sender has not sent any weather packets the latest 10 day(s).
| Time | Temp. | Humidity | Pressure | Rain* | Wind** | Luminosity | Snow |
|---|---|---|---|---|---|---|---|
| 1777565755 | 21.67° C | 93% | 1013.3 hPa | 0 mm | - | - | - |
| 1777560335 | 19.44° C | 100% | 1013.1 hPa | 0 mm | - | - | - |
| 1777554062 | 18.33° C | 100% | 1012 hPa | 0 mm | - | - | - |
| 1777550443 | 17.78° C | 100% | 1011.4 hPa | 0 mm | - | - | - |
| 1777539639 | 17.78° C | 100% | 1010.1 hPa | 0 mm | - | - | - |
| 1777535141 | 17.22° C | 100% | 1009.8 hPa | 0 mm | - | - | - |
| 1777529737 | 17.22° C | 100% | 1011 hPa | 0.25 mm | - | - | - |
| 1777523437 | 17.22° C | 100% | 1011.6 hPa | 0 mm | - | - | - |
| 1777514451 | 17.78° C | 100% | 1015 hPa | 1.27 mm | - | - | - |
| 1777509938 | 18.33° C | 99% | 1014.4 hPa | 11.18 mm | - | - | - |
| 1777508142 | 18.89° C | 98% | 1013.5 hPa | 21.34 mm | - | - | - |
| 1777496438 | 29.44° C | 69% | 1010.8 hPa | 0 mm | - | - | - |
| 1777495543 | 30.56° C | 65% | 1010.8 hPa | 0 mm | - | - | - |
| 1777491945 | 30° C | 66% | 1011.9 hPa | 0 mm | - | - | - |
| 1777481139 | 27.78° C | 76% | 1015.9 hPa | 0 mm | - | - | - |
| 1777478436 | 26.67° C | 79% | 1016.2 hPa | 0 mm | - | - | - |
| 1777474835 | 24.44° C | 85% | 1016.7 hPa | 0 mm | - | - | - |
| 1777470344 | 22.78° C | 89% | 1017.2 hPa | 0 mm | - | - | - |
| 1777468542 | 22.78° C | 90% | 1017 hPa | 0 mm | - | - | - |
| 1777462239 | 18.89° C | 100% | 1017.2 hPa | 0 mm | - | - | - |
| 1777459553 | 18.89° C | 99% | 1015.8 hPa | 0 mm | - | - | - |
| 1777456837 | 19.44° C | 99% | 1016.1 hPa | 0 mm | - | - | - |
| 1777454145 | 20° C | 99% | 1016.5 hPa | 0.25 mm | - | - | - |
| 1777448739 | 20° C | 98% | 1015 hPa | 0 mm | - | - | - |
| 1777446045 | 19.44° C | 96% | 1015.1 hPa | 0 mm | - | - | - |
* Rain latest hour (hover to see other rain measurements)
** Current wind speed in m/s (hover to see current wind gust speed)